Time;durP1;ratioP1;P1;durP2;ratioP2;P2;SDS_P1;SDS_P2;PMS_P1;PMS_P2;Temp;Humidity;BMP_temperature;BMP_pressure;BME280_temperature;BME280_humidity;BME280_pressure;Samples;Min_cycle;Max_cycle;Signal;HPM_P1;HPM_P2
2022/03/29 00:00:38;;;;;;;0.85;0.85;;;21.10;35.00;;;;;;5094697;28;20055;-78
2022/03/29 00:03:05;;;;;;;1.15;1.08;;;21.10;35.00;;;;;;5094698;28;20063;-78
2022/03/29 00:05:31;;;;;;;1.02;0.93;;;21.10;34.90;;;;;;5077112;28;20083;-78
2022/03/29 00:07:57;;;;;;;1.20;1.10;;;21.00;34.90;;;;;;5095314;28;20459;-78
2022/03/29 00:10:23;;;;;;;1.10;1.00;;;21.10;35.00;;;;;;5095180;28;20048;-78
2022/03/29 00:12:53;;;;;;;1.20;1.10;;;21.10;35.00;;;;;;5095250;28;20101;-78
2022/03/29 00:15:20;;;;;;;1.25;1.13;;;21.10;35.00;;;;;;5076666;28;20087;-78
2022/03/29 00:17:45;;;;;;;0.98;0.98;;;21.10;35.00;;;;;;5094709;28;20072;-78
2022/03/29 00:20:11;;;;;;;1.30;1.20;;;21.10;35.00;;;;;;5094078;28;20649;-78
2022/03/29 00:22:37;;;;;;;1.13;0.90;;;21.10;35.50;;;;;;5094882;28;20060;-78
2022/03/29 00:25:03;;;;;;;1.20;1.10;;;21.10;35.00;;;;;;5076410;28;20044;-78
2022/03/29 00:27:29;;;;;;;2.03;0.93;;;21.10;35.00;;;;;;5059646;28;20048;-78
2022/03/29 00:29:54;;;;;;;1.42;1.20;;;21.00;34.90;;;;;;5094403;28;20043;-78
2022/03/29 00:32:20;;;;;;;1.08;0.98;;;21.10;35.00;;;;;;5095001;28;20065;-78
2022/03/29 00:34:45;;;;;;;0.90;0.90;;;21.10;35.00;;;;;;5094706;28;20083;-78
2022/03/29 00:37:11;;;;;;;1.10;1.00;;;21.00;34.90;;;;;;5094449;28;20059;-78
2022/03/29 00:39:37;;;;;;;0.95;0.90;;;21.00;34.90;;;;;;5094404;28;20090;-78
2022/03/29 00:42:03;;;;;;;1.17;1.02;;;21.00;34.90;;;;;;5094755;28;20055;-78
2022/03/29 00:44:34;;;;;;;0.93;0.93;;;21.00;35.50;;;;;;5094359;28;20048;-78
2022/03/29 00:47:00;;;;;;;;;;;21.00;35.00;;;;;;5076939;28;20063;-78
2022/03/29 00:49:27;;;;;;;0.85;0.85;;;21.00;34.90;;;;;;5094050;28;19916;-78
2022/03/29 00:51:58;;;;;;;0.90;0.90;;;21.10;35.00;;;;;;5094366;28;20047;-78
2022/03/29 00:54:29;;;;;;;1.05;1.02;;;21.00;34.90;;;;;;5076481;28;20054;-78
2022/03/29 00:57:00;;;;;;;1.20;1.10;;;21.00;34.90;;;;;;5094207;28;20143;-78
2022/03/29 00:59:26;;;;;;;1.20;1.10;;;21.00;34.90;;;;;;5094036;28;20060;-78
2022/03/29 01:01:53;;;;;;;1.10;1.00;;;21.10;35.00;;;;;;5094017;28;20051;-78
2022/03/29 01:04:20;;;;;;;1.13;1.02;;;21.10;34.90;;;;;;5094147;28;20502;-78
2022/03/29 01:06:46;;;;;;;1.63;1.08;;;21.10;34.90;;;;;;5075709;28;20062;-78
2022/03/29 01:09:12;;;;;;;1.17;1.08;;;21.10;35.00;;;;;;5094070;28;20040;-78
2022/03/29 01:11:39;;;;;;;1.17;0.80;;;21.00;34.90;;;;;;5075864;28;20104;-78
2022/03/29 01:14:05;;;;;;;1.17;1.10;;;21.00;34.90;;;;;;5093886;28;20140;-78
2022/03/29 01:19:19;;;;;;;1.00;0.98;;;21.00;34.90;;;;;;5093850;28;20495;-78
2022/03/29 01:22:11;;;;;;;0.90;0.90;;;21.10;35.00;;;;;;5075652;28;20056;-79
2022/03/29 01:24:42;;;;;;;0.93;0.93;;;21.10;35.00;;;;;;5089035;28;20437;-78
2022/03/29 01:27:08;;;;;;;;;;;21.10;34.90;;;;;;5075983;28;20048;-78
2022/03/29 01:29:36;;;;;;;1.48;1.30;;;21.10;34.90;;;;;;5093726;28;19931;-78
2022/03/29 01:32:05;;;;;;;1.98;1.00;;;21.10;34.90;;;;;;5093572;28;20063;-78
2022/03/29 01:34:33;;;;;;;1.30;1.20;;;21.00;34.90;;;;;;5059177;28;20108;-78
2022/03/29 01:36:59;;;;;;;1.00;0.95;;;21.00;34.90;;;;;;5058630;28;20052;-78
2022/03/29 01:39:25;;;;;;;1.10;1.00;;;21.10;34.90;;;;;;5093467;28;20059;-78
2022/03/29 01:41:51;;;;;;;1.10;1.00;;;21.10;35.00;;;;;;5093465;28;20060;-78
2022/03/29 01:44:16;;;;;;;1.13;1.02;;;21.10;35.00;;;;;;5075230;28;20100;-78
2022/03/29 01:46:42;;;;;;;1.10;0.90;;;21.10;35.50;;;;;;5093769;28;20047;-78
2022/03/29 01:49:10;;;;;;;0.80;0.80;;;21.10;34.90;;;;;;5075061;28;20055;-78
2022/03/29 01:51:35;;;;;;;1.08;1.00;;;21.10;35.00;;;;;;5093277;28;20055;-78
2022/03/29 01:54:02;;;;;;;1.17;1.00;;;21.10;34.90;;;;;;5058336;28;20052;-78
2022/03/29 01:56:31;;;;;;;1.00;0.90;;;21.00;34.90;;;;;;5093319;28;20083;-78
2022/03/29 01:58:57;;;;;;;1.42;1.30;;;21.10;34.90;;;;;;5074762;28;20052;-78
2022/03/29 02:01:22;;;;;;;1.27;1.10;;;21.10;34.90;;;;;;5093507;28;20520;-78
2022/03/29 02:03:48;;;;;;;1.23;1.13;;;21.10;34.90;;;;;;5074931;28;20059;-78
2022/03/29 02:06:14;;;;;;;1.30;1.20;;;21.10;34.90;;;;;;5093185;28;20066;-78
2022/03/29 02:08:39;;;;;;;1.10;1.00;;;21.10;34.90;;;;;;5092836;28;20442;-78
2022/03/29 02:11:06;;;;;;;1.05;0.90;;;21.10;34.90;;;;;;5093064;28;20063;-78
2022/03/29 02:13:34;;;;;;;0.98;0.95;;;21.10;34.90;;;;;;5093352;28;20051;-78
2022/03/29 02:16:01;;;;;;;1.20;1.10;;;21.10;34.90;;;;;;5074720;28;20051;-78
2022/03/29 02:18:27;;;;;;;1.23;0.90;;;21.00;34.90;;;;;;5092817;28;20476;-78
2022/03/29 02:20:54;;;;;;;1.02;1.00;;;21.10;35.00;;;;;;5092877;28;20063;-78
2022/03/29 02:23:19;;;;;;;1.73;1.10;;;21.00;34.90;;;;;;5092703;28;20075;-78
2022/03/29 02:25:46;;;;;;;1.15;1.05;;;21.10;34.90;;;;;;5092766;28;20416;-78
2022/03/29 02:28:12;;;;;;;1.00;1.00;;;21.10;34.80;;;;;;5073604;28;20056;-78
2022/03/29 02:30:38;;;;;;;1.58;1.33;;;21.20;34.80;;;;;;5092768;28;20055;-78
2022/03/29 02:33:05;;;;;;;1.10;1.05;;;21.20;34.80;;;;;;5092472;28;20047;-78
2022/03/29 02:35:31;;;;;;;1.02;1.00;;;21.20;34.80;;;;;;5074513;28;20097;-78
2022/03/29 02:37:56;;;;;;;1.35;1.25;;;21.20;34.80;;;;;;5092548;28;20459;-78
2022/03/29 02:40:22;;;;;;;1.20;1.10;;;21.20;34.70;;;;;;5091457;28;20380;-78
2022/03/29 02:42:53;;;;;;;0.93;0.93;;;21.20;34.70;;;;;;5092928;28;20052;-78
2022/03/29 02:45:20;;;;;;;1.25;1.15;;;21.20;34.70;;;;;;5097442;28;20079;-79
2022/03/29 02:47:49;;;;;;;1.25;1.00;;;21.20;34.70;;;;;;5080941;28;20480;-78
2022/03/29 02:50:16;;;;;;;1.17;1.08;;;21.30;34.70;;;;;;5099680;28;20051;-78
2022/03/29 02:52:52;;;;;;;1.25;1.10;;;21.30;34.70;;;;;;5081287;28;20067;-78
2022/03/29 02:55:19;;;;;;;1.13;1.02;;;21.30;34.60;;;;;;5098334;28;20052;-78
2022/03/29 02:57:46;;;;;;;2.22;1.10;;;21.30;34.60;;;;;;5098938;28;20161;-78
2022/03/29 03:00:15;;;;;;;1.63;1.23;;;21.30;34.60;;;;;;5099181;28;20079;-78
2022/03/29 03:02:53;;;;;;;1.00;1.00;;;21.30;34.60;;;;;;5099147;28;20056;-78
2022/03/29 03:05:21;;;;;;;1.30;1.20;;;21.30;34.60;;;;;;5099091;28;20064;-78
2022/03/29 03:07:48;;;;;;;1.25;1.15;;;21.30;34.60;;;;;;5081215;28;20496;-78
2022/03/29 03:10:14;;;;;;;1.38;1.23;;;21.40;34.60;;;;;;5097748;28;20060;-78
2022/03/29 03:12:42;;;;;;;1.25;1.13;;;21.40;34.60;;;;;;5080798;28;20484;-78
2022/03/29 03:15:10;;;;;;;1.40;1.20;;;21.30;34.60;;;;;;5080707;28;20055;-78
2022/03/29 03:17:36;;;;;;;1.20;1.08;;;21.30;34.60;;;;;;5098868;28;20044;-78
2022/03/29 03:20:03;;;;;;;1.10;1.00;;;21.30;34.60;;;;;;5098969;28;20525;-78
2022/03/29 03:22:28;;;;;;;1.35;1.02;;;21.40;34.60;;;;;;5079123;28;20044;-78
2022/03/29 03:24:55;;;;;;;1.20;0.90;;;21.30;34.60;;;;;;5099119;28;20173;-78
2022/03/29 03:27:21;;;;;;;0.90;0.90;;;21.30;34.60;;;;;;5080669;28;20063;-78
2022/03/29 03:29:46;;;;;;;0.80;0.80;;;21.30;34.60;;;;;;5079267;28;20044;-78
2022/03/29 03:32:12;;;;;;;1.05;1.00;;;21.30;34.60;;;;;;5098824;28;20136;-78
2022/03/29 03:34:38;;;;;;;1.00;1.00;;;21.30;34.70;;;;;;5098730;28;20052;-78
2022/03/29 03:37:04;;;;;;;1.15;1.05;;;21.30;34.60;;;;;;5098634;28;20048;-78
2022/03/29 03:39:34;;;;;;;1.08;1.05;;;21.30;34.70;;;;;;5080516;28;20056;-78
2022/03/29 03:42:01;;;;;;;1.13;1.05;;;21.30;34.70;;;;;;5098703;28;20135;-78
2022/03/29 03:44:27;;;;;;;1.25;1.15;;;21.30;34.70;;;;;;5063681;28;20146;-78
2022/03/29 03:46:53;;;;;;;1.33;1.23;;;21.30;34.70;;;;;;5080696;28;20484;-78
2022/03/29 03:49:18;;;;;;;1.50;1.40;;;21.30;34.70;;;;;;5098389;28;20518;-78
2022/03/29 03:51:44;;;;;;;1.30;1.20;;;21.30;34.70;;;;;;5098807;28;20052;-78
2022/03/29 03:54:09;;;;;;;1.30;1.20;;;21.20;34.60;;;;;;5063490;28;20093;-78
2022/03/29 03:56:35;;;;;;;1.10;1.00;;;21.30;34.70;;;;;;5074890;28;20056;-79
2022/03/29 03:59:00;;;;;;;1.38;1.27;;;21.30;34.70;;;;;;5095337;28;20051;-78
2022/03/29 04:01:27;;;;;;;1.60;1.40;;;21.30;34.70;;;;;;5095114;28;20144;-79
2022/03/29 04:03:52;;;;;;;1.23;1.13;;;21.30;34.70;;;;;;5095057;28;20408;-78
2022/03/29 04:06:18;;;;;;;1.27;1.17;;;21.30;34.70;;;;;;5095253;28;20070;-78
2022/03/29 04:08:43;;;;;;;1.27;1.15;;;21.30;34.70;;;;;;5076715;28;20408;-78
2022/03/29 04:11:09;;;;;;;1.50;1.40;;;21.30;34.70;;;;;;5059940;28;20043;-78
2022/03/29 04:13:34;;;;;;;1.63;1.10;;;21.30;34.70;;;;;;5094911;28;20109;-78
2022/03/29 04:16:02;;;;;;;1.33;1.23;;;21.30;34.70;;;;;;5094795;28;20048;-78
2022/03/29 04:18:29;;;;;;;1.40;1.23;;;21.30;34.70;;;;;;5076421;28;20048;-78
2022/03/29 04:20:54;;;;;;;1.45;1.35;;;21.30;34.70;;;;;;5094749;28;20169;-78
2022/03/29 04:23:20;;;;;;;1.60;1.20;;;21.30;34.70;;;;;;5074793;28;20074;-78
2022/03/29 04:25:46;;;;;;;1.63;1.48;;;21.30;34.70;;;;;;5094655;28;20083;-79
2022/03/29 04:28:11;;;;;;;1.48;1.17;;;21.30;34.70;;;;;;5094795;28;20063;-78
2022/03/29 04:30:37;;;;;;;1.13;1.00;;;21.30;34.70;;;;;;5076459;28;20056;-78
2022/03/29 04:33:03;;;;;;;1.45;1.20;;;21.30;34.70;;;;;;5076309;28;20461;-78
2022/03/29 04:35:28;;;;;;;1.35;1.10;;;21.30;34.70;;;;;;5094758;28;20101;-78
2022/03/29 04:37:54;;;;;;;1.63;1.20;;;21.20;34.70;;;;;;5094987;28;20383;-78
2022/03/29 04:40:20;;;;;;;1.02;1.02;;;21.30;34.70;;;;;;5076905;28;20079;-78
2022/03/29 04:42:49;;;;;;;1.10;0.98;;;21.20;34.60;;;;;;5093197;28;20737;-78
2022/03/29 04:45:16;;;;;;;1.08;0.98;;;21.20;34.60;;;;;;5076450;28;20441;-78
2022/03/29 04:47:43;;;;;;;1.00;0.95;;;21.30;34.70;;;;;;5094313;28;20036;-78
2022/03/29 04:50:11;;;;;;;2.42;1.20;;;21.30;34.70;;;;;;5076100;28;20062;-78
2022/03/29 04:52:39;;;;;;;1.20;1.10;;;21.20;34.60;;;;;;5059347;28;20403;-78
2022/03/29 04:55:06;;;;;;;1.58;1.13;;;21.30;34.70;;;;;;5094461;28;20048;-78
2022/03/29 04:57:32;;;;;;;1.10;1.10;;;21.30;34.70;;;;;;5094070;28;20083;-78
2022/03/29 04:59:57;;;;;;;1.30;1.20;;;21.30;34.70;;;;;;5094400;28;20549;-78
2022/03/29 05:02:23;;;;;;;1.38;1.20;;;21.30;34.70;;;;;;5094169;28;20506;-78
2022/03/29 05:04:50;;;;;;;1.38;1.27;;;21.30;34.60;;;;;;5094146;28;20072;-78
2022/03/29 05:07:16;;;;;;;1.85;1.10;;;21.30;34.60;;;;;;5074466;28;20055;-78
2022/03/29 05:09:42;;;;;;;1.30;1.20;;;21.30;34.60;;;;;;5093993;28;20052;-78
2022/03/29 05:12:07;;;;;;;1.08;0.98;;;21.30;34.60;;;;;;5094286;28;20051;-78
2022/03/29 05:14:34;;;;;;;1.10;1.00;;;21.30;34.70;;;;;;5093947;28;20054;-78
2022/03/29 05:17:00;;;;;;;1.38;1.27;;;21.30;34.60;;;;;;5093551;28;20056;-78
2022/03/29 05:19:26;;;;;;;1.50;1.17;;;21.30;34.60;;;;;;5075571;28;20055;-78
2022/03/29 05:21:52;;;;;;;1.25;1.15;;;21.30;34.60;;;;;;5075235;28;20047;-78
2022/03/29 05:24:18;;;;;;;1.33;1.23;;;21.30;34.60;;;;;;5093691;28;20533;-78
2022/03/29 05:26:44;;;;;;;1.15;1.10;;;21.30;34.60;;;;;;5076049;28;20503;-78
2022/03/29 05:29:11;;;;;;;1.52;1.30;;;21.30;34.60;;;;;;5093577;28;20062;-78
2022/03/29 05:31:37;;;;;;;1.30;1.20;;;21.30;34.60;;;;;;5093600;28;20059;-78
2022/03/29 05:34:03;;;;;;;1.20;1.10;;;21.30;34.60;;;;;;5093737;28;20051;-78
2022/03/29 05:36:28;;;;;;;1.75;1.23;;;21.30;34.50;;;;;;5093410;28;20058;-78
2022/03/29 05:38:54;;;;;;;1.25;1.15;;;21.40;34.60;;;;;;5093357;28;20047;-78
2022/03/29 05:41:20;;;;;;;1.30;1.20;;;21.40;34.50;;;;;;5093408;28;20052;-78
2022/03/29 05:43:48;;;;;;;1.42;1.33;;;21.40;34.50;;;;;;5075236;28;20048;-78
2022/03/29 05:48:59;;;;;;;1.42;1.20;;;21.40;34.40;;;;;;5089396;28;20119;-78
2022/03/29 05:51:26;;;;;;;1.35;1.25;;;21.50;34.40;;;;;;5093035;28;20052;-78
2022/03/29 05:53:53;;;;;;;1.23;1.13;;;21.50;34.30;;;;;;5074917;28;20062;-78
2022/03/29 05:56:19;;;;;;;1.33;1.23;;;21.60;34.30;;;;;;5093181;28;20063;-78
2022/03/29 05:58:45;;;;;;;1.13;1.02;;;21.60;34.10;;;;;;5092883;28;20048;-79
2022/03/29 06:01:10;;;;;;;1.30;1.20;;;21.70;34.10;;;;;;5074641;28;20506;-78
2022/03/29 06:03:36;;;;;;;1.40;1.30;;;21.70;34.00;;;;;;5092812;28;20404;-78
2022/03/29 06:06:03;;;;;;;1.20;1.10;;;21.80;34.00;;;;;;5093437;28;20059;-78
2022/03/29 06:08:29;;;;;;;1.50;1.40;;;21.80;34.50;;;;;;5074208;28;20139;-78
2022/03/29 06:10:55;;;;;;;1.35;1.10;;;21.90;33.90;;;;;;5092274;28;20052;-78
2022/03/29 06:13:21;;;;;;;1.30;1.20;;;21.90;33.90;;;;;;5092431;28;20052;-78
2022/03/29 06:15:47;;;;;;;1.40;1.30;;;21.90;33.80;;;;;;5092628;28;20058;-78
2022/03/29 06:18:12;;;;;;;1.35;1.25;;;22.00;33.70;;;;;;5072503;28;20044;-78
2022/03/29 06:20:38;;;;;;;1.95;1.73;;;22.00;33.60;;;;;;5092983;28;20613;-78
2022/03/29 06:23:04;;;;;;;1.33;1.23;;;22.10;33.60;;;;;;5072519;28;20055;-79
2022/03/29 06:25:32;;;;;;;1.40;1.30;;;22.10;33.60;;;;;;5092596;28;20083;-78
2022/03/29 06:27:58;;;;;;;1.10;1.10;;;22.10;33.60;;;;;;5092366;28;20044;-78
2022/03/29 06:30:24;;;;;;;1.30;1.20;;;22.10;33.50;;;;;;5092585;28;20051;-78
2022/03/29 06:32:51;;;;;;;1.20;1.10;;;22.20;33.60;;;;;;5074615;28;20143;-78
2022/03/29 06:35:22;;;;;;;2.08;1.45;;;22.20;33.50;;;;;;5092489;28;20055;-78
2022/03/29 06:37:49;;;;;;;1.75;1.23;;;22.20;33.40;;;;;;5091061;28;20044;-78
2022/03/29 06:40:15;;;;;;;1.70;1.35;;;22.20;33.40;;;;;;5092285;28;20043;-78
2022/03/29 06:42:41;;;;;;;1.70;1.60;;;22.30;33.40;;;;;;5092413;28;20059;-79
2022/03/29 06:45:08;;;;;;;1.58;1.48;;;22.30;33.30;;;;;;5055830;28;20392;-79
2022/03/29 06:47:33;;;;;;;1.27;1.17;;;22.40;33.30;;;;;;5092231;28;20474;-79
2022/03/29 06:49:59;;;;;;;1.50;1.40;;;22.30;33.20;;;;;;5074430;28;20136;-79
2022/03/29 06:52:26;;;;;;;1.40;1.30;;;22.40;33.20;;;;;;5092340;28;20048;-79
2022/03/29 06:54:52;;;;;;;1.42;1.33;;;22.40;33.10;;;;;;5074289;28;20056;-79
2022/03/29 06:57:18;;;;;;;1.85;1.42;;;22.50;33.20;;;;;;5073913;28;20143;-79
2022/03/29 06:59:44;;;;;;;1.40;1.30;;;22.50;33.10;;;;;;5072740;28;20139;-78
2022/03/29 07:02:09;;;;;;;1.50;1.25;;;22.50;33.00;;;;;;5073984;28;20082;-78
2022/03/29 07:04:35;;;;;;;1.98;1.40;;;22.60;33.00;;;;;;5091956;28;20068;-79
2022/03/29 07:07:00;;;;;;;1.48;1.38;;;22.60;33.00;;;;;;5073666;28;20087;-79
2022/03/29 07:12:11;;;;;;;1.55;1.20;;;22.60;33.40;;;;;;5092196;28;20044;-79
2022/03/29 07:14:37;;;;;;;1.40;1.30;;;22.70;32.90;;;;;;5091722;28;20086;-78
2022/03/29 07:17:05;;;;;;;1.50;1.40;;;22.70;32.80;;;;;;5091723;28;20056;-79
2022/03/29 07:19:31;;;;;;;1.60;1.30;;;22.70;32.80;;;;;;5091688;28;20051;-78
2022/03/29 07:21:57;;;;;;;2.70;1.50;;;22.70;32.80;;;;;;5057094;28;20052;-79
2022/03/29 07:24:22;;;;;;;2.10;1.30;;;22.70;32.80;;;;;;5073027;28;20404;-79
2022/03/29 07:26:48;;;;;;;1.92;1.70;;;22.70;32.90;;;;;;5073512;28;20063;-79
2022/03/29 07:29:13;;;;;;;1.63;1.48;;;22.60;32.90;;;;;;5073359;28;20048;-79
2022/03/29 07:31:39;;;;;;;1.50;1.40;;;22.50;33.00;;;;;;5076925;28;20055;-79
2022/03/29 07:34:05;;;;;;;1.73;1.42;;;22.50;33.00;;;;;;5095028;28;20109;-79
2022/03/29 07:36:31;;;;;;;1.50;1.40;;;22.60;32.90;;;;;;5076829;28;20059;-78
2022/03/29 07:38:57;;;;;;;2.22;1.60;;;22.60;33.00;;;;;;5074906;28;20044;-79
2022/03/29 07:41:22;;;;;;;1.52;1.30;;;22.50;33.00;;;;;;5076842;28;20063;-79
2022/03/29 07:43:48;;;;;;;2.20;2.00;;;22.50;33.10;;;;;;5094715;28;20131;-79
2022/03/29 07:46:14;;;;;;;1.73;1.58;;;22.40;33.20;;;;;;5076571;28;20500;-79
2022/03/29 07:48:39;;;;;;;2.17;1.48;;;22.50;33.20;;;;;;5095192;28;20052;-79
2022/03/29 07:51:05;;;;;;;2.25;1.67;;;22.50;33.00;;;;;;5060164;28;20074;-79
2022/03/29 07:53:32;;;;;;;1.38;1.20;;;22.50;33.10;;;;;;5059716;28;20539;-79
2022/03/29 07:55:58;;;;;;;1.75;1.30;;;22.50;33.10;;;;;;5076738;28;20075;-78
2022/03/29 07:58:23;;;;;;;2.03;1.55;;;22.40;33.10;;;;;;5094400;28;20440;-79
2022/03/29 08:00:51;;;;;;;2.15;1.50;;;22.50;33.10;;;;;;5094629;28;20056;-79
2022/03/29 08:03:17;;;;;;;2.63;1.58;;;22.50;33.10;;;;;;5094432;28;20446;-79
2022/03/29 08:05:44;;;;;;;1.55;1.25;;;22.50;33.10;;;;;;5076342;28;20048;-79
2022/03/29 08:08:15;;;;;;;1.85;1.30;;;22.50;33.00;;;;;;5075094;28;20056;-81
2022/03/29 08:10:41;;;;;;;2.42;1.63;;;22.50;32.90;;;;;;5093944;28;20048;-82
2022/03/29 08:13:08;;;;;;;2.13;1.60;;;22.40;33.10;;;;;;5091553;28;20056;-83
2022/03/29 08:15:39;;;;;;;1.35;1.25;;;22.40;33.20;;;;;;5073202;28;20059;-84
2022/03/29 08:18:05;;;;;;;1.65;1.55;;;22.40;33.20;;;;;;5059269;28;20051;-83
2022/03/29 08:20:31;;;;;;;2.22;1.77;;;22.40;33.10;;;;;;5093938;28;20507;-83
2022/03/29 08:23:00;;;;;;;1.58;1.40;;;22.50;33.10;;;;;;5074719;28;20048;-83
2022/03/29 08:25:28;;;;;;;1.90;1.38;;;22.50;33.00;;;;;;5073605;28;20056;-84
2022/03/29 08:27:56;;;;;;;1.70;1.52;;;22.50;33.10;;;;;;5074265;28;20058;-84
2022/03/29 08:30:22;;;;;;;1.80;1.65;;;22.40;33.10;;;;;;5073251;28;20525;-82
2022/03/29 08:32:48;;;;;;;2.15;1.70;;;22.30;33.20;;;;;;5091377;28;20175;-84
2022/03/29 08:35:13;;;;;;;1.90;1.63;;;22.30;33.20;;;;;;5073016;28;20151;-84
2022/03/29 08:37:40;;;;;;;1.80;1.63;;;22.30;33.20;;;;;;5073064;28;20044;-84
2022/03/29 08:40:13;;;;;;;2.45;1.80;;;22.30;33.30;;;;;;5090155;28;20048;-83
2022/03/29 08:42:43;;;;;;;2.30;1.60;;;22.30;33.30;;;;;;5090289;28;20497;-84
2022/03/29 08:45:13;;;;;;;3.03;1.75;;;22.30;33.30;;;;;;5091661;28;20052;-84
2022/03/29 08:47:41;;;;;;;1.63;1.43;;;22.30;33.30;;;;;;5092153;28;20051;-84
2022/03/29 08:50:09;;;;;;;1.92;1.50;;;22.20;33.30;;;;;;5075018;28;20569;-83
2022/03/29 08:52:34;;;;;;;1.98;1.70;;;22.20;33.30;;;;;;5075237;28;20078;-83
2022/03/29 08:55:03;;;;;;;3.33;1.83;;;22.20;33.40;;;;;;5058310;28;20047;-83
2022/03/29 08:57:29;;;;;;;2.67;1.60;;;22.20;33.40;;;;;;5093204;28;20480;-83
2022/03/29 08:59:55;;;;;;;3.58;1.63;;;22.10;33.40;;;;;;5074963;28;20047;-83
2022/03/29 09:02:21;;;;;;;2.53;1.40;;;22.20;33.50;;;;;;5093057;28;20062;-83
2022/03/29 09:05:07;;;;;;;2.30;1.70;;;22.10;33.60;;;;;;5058102;28;20048;-83
2022/03/29 09:07:54;;;;;;;3.78;1.95;;;22.10;33.60;;;;;;5074601;28;20046;-83
2022/03/29 09:10:23;;;;;;;1.60;1.50;;;22.10;33.60;;;;;;5074820;28;20063;-83
2022/03/29 09:12:49;;;;;;;1.85;1.63;;;22.10;33.60;;;;;;5092907;28;20519;-83
2022/03/29 09:15:16;;;;;;;1.75;1.60;;;22.00;33.60;;;;;;5073248;28;20489;-83
2022/03/29 09:17:45;;;;;;;1.77;1.38;;;22.00;33.60;;;;;;5092622;28;20044;-83
2022/03/29 09:20:21;;;;;;;2.10;1.75;;;22.00;33.70;;;;;;5092805;28;20116;-83
2022/03/29 09:22:50;;;;;;;1.98;1.63;;;22.00;33.70;;;;;;5090110;28;20066;-83
2022/03/29 09:25:33;;;;;;;1.83;1.52;;;21.90;33.70;;;;;;5074610;28;20392;-83
2022/03/29 09:28:02;;;;;;;1.95;1.65;;;21.90;33.70;;;;;;5093110;28;20048;-83
2022/03/29 09:30:40;;;;;;;3.63;1.83;;;22.00;33.70;;;;;;5073375;28;20052;-83
2022/03/29 09:33:09;;;;;;;1.83;1.40;;;22.00;33.80;;;;;;5074465;28;20052;-84
2022/03/29 09:35:51;;;;;;;2.58;1.92;;;22.00;33.80;;;;;;5074629;28;20055;-83
2022/03/29 09:38:36;;;;;;;2.20;1.58;;;21.90;33.80;;;;;;5053717;28;20048;-83
2022/03/29 09:41:03;;;;;;;3.05;1.88;;;21.90;33.80;;;;;;5092848;28;20052;-83
2022/03/29 09:44:08;;;;;;;1.88;1.52;;;21.90;33.80;;;;;;5069770;28;20055;-83
2022/03/29 09:46:58;;;;;;;3.53;1.90;;;21.90;33.80;;;;;;5091437;28;20056;-83
2022/03/29 09:49:25;;;;;;;1.70;1.40;;;21.90;33.80;;;;;;5057651;28;20052;-83
2022/03/29 09:52:15;;;;;;;2.15;1.63;;;21.90;33.80;;;;;;5074055;28;20052;-83
2022/03/29 09:54:42;;;;;;;1.63;1.53;;;21.90;33.80;;;;;;5072227;28;20053;-83
2022/03/29 09:57:09;;;;;;;2.65;1.65;;;21.90;33.90;;;;;;5092210;28;20278;-83
2022/03/29 09:59:48;;;;;;;1.50;1.40;;;21.90;33.90;;;;;;5092290;28;20365;-83
2022/03/29 10:02:14;;;;;;;1.90;1.60;;;21.90;33.90;;;;;;5092132;28;20400;-83
2022/03/29 10:04:41;;;;;;;2.53;1.80;;;21.90;33.90;;;;;;5073763;28;20105;-82
2022/03/29 10:07:09;;;;;;;2.38;1.60;;;21.90;33.90;;;;;;5073917;28;20467;-82
2022/03/29 10:09:37;;;;;;;1.65;1.50;;;21.90;33.90;;;;;;5074031;28;20438;-84
2022/03/29 10:12:04;;;;;;;1.83;1.65;;;21.90;33.90;;;;;;5092043;28;20151;-83
2022/03/29 10:14:36;;;;;;;3.45;1.70;;;21.90;33.90;;;;;;5056769;28;20044;-80
2022/03/29 10:17:02;;;;;;;3.22;1.63;;;21.90;33.90;;;;;;5071275;28;20487;-82
2022/03/29 10:19:28;;;;;;;1.98;1.48;;;21.90;33.90;;;;;;5073356;28;20098;-78
2022/03/29 10:21:55;;;;;;;2.15;1.55;;;21.90;33.80;;;;;;5092010;28;20051;-80
2022/03/29 10:24:22;;;;;;;2.80;1.80;;;21.90;33.90;;;;;;5090555;28;20048;-78
2022/03/29 10:26:49;;;;;;;2.13;1.60;;;21.90;33.80;;;;;;5073638;28;20056;-80
2022/03/29 10:29:15;;;;;;;2.55;1.70;;;21.90;33.80;;;;;;5074036;28;20056;-77
2022/03/29 10:31:58;;;;;;;2.70;1.90;;;21.90;33.90;;;;;;5090542;28;20048;-78
2022/03/29 10:34:25;;;;;;;4.50;1.80;;;21.80;33.80;;;;;;5090573;28;20138;-78
2022/03/29 10:37:01;;;;;;;4.00;1.90;;;21.80;33.80;;;;;;5091711;28;20135;-77
2022/03/29 10:39:43;;;;;;;4.60;1.95;;;21.80;33.80;;;;;;5056726;28;20066;-80
2022/03/29 10:42:25;;;;;;;;;;;21.90;33.90;;;;;;5073829;28;20052;-78
2022/03/29 10:45:16;;;;;;;2.67;1.73;;;21.90;33.80;;;;;;5073520;28;20006;-78
2022/03/29 10:47:45;;;;;;;5.23;2.33;;;21.90;33.80;;;;;;5073553;28;20052;-80
2022/03/29 10:50:13;;;;;;;3.95;1.95;;;21.90;33.80;;;;;;5073496;28;20068;-84
2022/03/29 10:52:45;;;;;;;5.10;2.38;;;21.90;33.80;;;;;;5091837;28;20056;-81
2022/03/29 10:55:27;;;;;;;5.60;2.63;;;21.80;33.70;;;;;;5073290;28;20048;-80
2022/03/29 10:58:12;;;;;;;4.00;1.65;;;21.90;33.80;;;;;;5072713;28;20143;-84
2022/03/29 11:00:43;;;;;;;3.95;1.80;;;21.80;33.70;;;;;;5073274;28;20052;-82
2022/03/29 11:03:11;;;;;;;8.02;2.30;;;21.80;33.70;;;;;;5073290;28;20537;-81
2022/03/29 11:06:08;;;;;;;4.47;2.13;;;21.80;33.70;;;;;;5075390;28;20097;-81
2022/03/29 11:08:36;;;;;;;2.67;1.88;;;21.80;33.70;;;;;;5076447;28;20111;-84
2022/03/29 11:11:03;;;;;;;4.10;1.98;;;21.80;33.70;;;;;;5076336;28;20067;-82
2022/03/29 11:13:37;;;;;;;5.18;2.20;;;21.80;33.70;;;;;;5075445;28;20059;-82
2022/03/29 11:16:30;;;;;;;4.40;1.80;;;21.80;33.70;;;;;;5095028;28;20443;-78
2022/03/29 11:18:58;;;;;;;5.28;1.85;;;21.80;33.70;;;;;;5073253;28;20055;-78
2022/03/29 11:21:38;;;;;;;3.22;1.90;;;21.80;33.70;;;;;;5059395;28;20118;-79
2022/03/29 11:24:07;;;;;;;3.40;2.05;;;21.80;33.70;;;;;;5075652;28;20056;-80
2022/03/29 11:26:34;;;;;;;4.90;1.83;;;21.80;33.60;;;;;;5094515;28;20083;-79
2022/03/29 11:29:02;;;;;;;4.43;2.00;;;21.80;33.70;;;;;;5076371;28;20052;-79
2022/03/29 11:31:39;;;;;;;5.75;2.03;;;21.80;33.70;;;;;;5094401;28;20172;-79
2022/03/29 11:34:09;;;;;;;5.75;1.83;;;21.80;33.60;;;;;;5076048;28;20063;-78
2022/03/29 11:36:37;;;;;;;2.55;1.67;;;21.80;33.60;;;;;;5074552;28;20048;-81
2022/03/29 11:39:19;;;;;;;5.75;2.00;;;21.80;33.60;;;;;;5059169;28;20399;-80
2022/03/29 11:41:47;;;;;;;5.68;2.00;;;21.80;33.60;;;;;;5094422;28;20052;-80
2022/03/29 11:44:14;;;;;;;3.05;1.95;;;21.80;33.60;;;;;;5094125;28;20063;-77
2022/03/29 11:46:50;;;;;;;4.47;1.90;;;21.80;33.50;;;;;;5094010;28;20079;-79
2022/03/29 11:49:17;;;;;;;2.97;1.73;;;21.80;33.50;;;;;;5094260;28;20093;-81
2022/03/29 11:51:43;;;;;;;3.25;1.88;;;21.80;33.50;;;;;;5076050;28;20048;-79
2022/03/29 11:54:09;;;;;;;3.22;1.73;;;21.80;33.50;;;;;;5094405;28;20048;-78
2022/03/29 11:56:37;;;;;;;6.05;1.95;;;21.80;33.50;;;;;;5093734;28;20052;-79
2022/03/29 11:59:06;;;;;;;4.65;2.00;;;21.80;33.50;;;;;;5094018;28;20128;-78
2022/03/29 12:01:32;;;;;;;5.60;2.33;;;21.80;33.50;;;;;;5075750;28;20143;-79
2022/03/29 12:04:01;;;;;;;3.10;1.67;;;21.80;33.50;;;;;;5093971;28;20060;-82
2022/03/29 12:06:29;;;;;;;4.10;2.10;;;21.80;33.50;;;;;;5075962;28;20108;-79
2022/03/29 12:09:09;;;;;;;4.05;1.85;;;21.80;33.80;;;;;;5094329;28;20063;-81
2022/03/29 12:11:37;;;;;;;4.03;2.05;;;21.80;33.60;;;;;;5075944;28;20056;-83
2022/03/29 12:14:12;;;;;;;4.18;1.67;;;21.80;33.50;;;;;;5094007;28;20541;-81
2022/03/29 12:16:40;;;;;;;4.50;2.13;;;21.80;33.50;;;;;;5073538;28;20091;-82
2022/03/29 12:19:10;;;;;;;7.55;2.35;;;21.80;33.50;;;;;;5057770;28;20048;-80
2022/03/29 12:21:38;;;;;;;6.72;2.78;;;21.80;33.50;;;;;;5093868;28;20408;-76
2022/03/29 12:24:11;;;;;;;3.63;1.83;;;21.80;33.50;;;;;;5093994;28;20072;-82
2022/03/29 12:26:43;;;;;;;5.70;1.80;;;21.80;33.50;;;;;;5075432;28;20492;-82
2022/03/29 12:29:12;;;;;;;5.25;1.90;;;21.80;33.50;;;;;;5075338;28;20241;-81
2022/03/29 12:31:39;;;;;;;3.65;1.52;;;21.80;33.50;;;;;;5059075;28;20048;-82
2022/03/29 12:34:06;;;;;;;5.95;1.88;;;21.80;33.50;;;;;;5092387;28;20055;-81
2022/03/29 12:36:32;;;;;;;3.08;1.75;;;21.80;33.50;;;;;;5058041;28;20241;-91
2022/03/29 12:39:04;;;;;;;3.50;1.77;;;21.80;33.50;;;;;;5073920;28;20056;-87
2022/03/29 12:41:37;;;;;;;4.72;1.90;;;21.70;33.50;;;;;;5076001;28;20412;-85
2022/03/29 12:44:06;;;;;;;4.90;1.70;;;21.80;33.50;;;;;;5075634;28;20140;-90
2022/03/29 12:46:33;;;;;;;4.95;2.10;;;21.80;33.50;;;;;;5075978;28;20507;-80
2022/03/29 12:48:59;;;;;;;3.15;1.85;;;21.70;33.40;;;;;;5093150;28;20512;-78
2022/03/29 12:51:33;;;;;;;6.18;2.05;;;21.70;34.00;;;;;;5058377;28;20139;-78
2022/03/29 12:54:03;;;;;;;3.88;1.83;;;21.80;33.50;;;;;;5074980;28;20462;-82
2022/03/29 12:56:36;;;;;;;3.78;1.80;;;21.80;33.50;;;;;;5074262;28;20083;-82
2022/03/29 12:59:25;;;;;;;3.92;1.80;;;21.80;33.50;;;;;;5093004;28;20056;-85
2022/03/29 13:01:50;;;;;;;3.45;1.88;;;21.80;33.50;;;;;;5058019;28;20052;-80